Maxwell, Indiana
Current Conditions -  °F | °C
As of 4:15 AM on Saturday 25 Oct 2014 (Local Time) from KMQJ Reporting Station
Scattered Clouds Scattered Clouds  
Wind Chill: 52°   Ceiling: Unl
Heat Index: 52°   Visibility: 7mi
Dew Point: 52°   Wind: 8mph
Humidity: 100%   Direction: 170°S
Pressure: 29.98"   Gusts: NA
Location:  39.86°N, 85.77°W
Report Text: KMQJ 250815Z AUTO 17007KT 7SM SCT048 SCT060 SCT085 11/11 A2998 RMK AO1
Loading
Personal Weather Stations






























Interactive Weather Map
Tropical Storm Tracking
New forecast layout! Learn more

10-Day Weather Forecast

Advertisements
Track Severe Weather on mobile